Aktualne dane pomiarowe

Uwaga, wersja testowa! Automatyczne pobieranie danych za pomocą narzędzi lub skryptów to umożliwiających jest zabronione.

Dane meteo z obszaru Polski uzyskane na podstawie depesz SYNOP pobieranych co godzinę z NWS. Najedź myszką na symbol przedstawiony w tabeli, aby uzyskać informacje co do jego znaczenia. Prosimy pamiętać, że to testowa wersja strony, która jeszcze nie jest ukończona. Stworzono również jest krótki FAQ dotyczący korzystania z tej podstrony Anomalie temperatury w chwili obecnej odniesione są do okresu referencyjnego 1951-2016. Okres ten będzie później zmieniony na 1981-2010. Kliknij ikonę aby pobrać plik CSV. Kliknij ikonę aby wygenerować mapę synoptyczną dla danego terminu.

Wybierz Datę:    

        

Kielce-Suków (12570)

Dane terminowe dla wybranej stacji. Kliknij datę, aby otrzymać dane z tego terminu dla wszystkich stacji.

TemperaturaZachmurzenieWiatrCiśnienieOpadyPogoda
 Data t td wb tx tn tg rh  Nt Nl Cl Cm Ch ws wd g1 g2 wx mslp ppp ch 24h 12h t ww ww w1 w2  
2019-05-06 23:00:00 7.9 -0.6 3.7--- 5540.0wx-wx4wx--41013.9 982.2 0.2---------
2019-05-06 22:00:00 8.5 -1.1 3.9--- 5140.0wx-wx5wx--51013.9 982.3 0.6---------
2019-05-06 21:00:00 8.9 -1.3 4.0--- 4930.0wx-wx3wx--31013.4 981.9 0.5---------
2019-05-06 20:00:00 8.8 -2.2 3.7--- 4628.0wx-wx4wx--41013.5 982.0 1.0---------
2019-05-06 19:00:00 9.4 -2.6 3.9--- 4325.0wx-wx4wx---1013.2 981.7 0.9---------
2019-05-06 18:00:00 9.9 -2.4 4.3 11.4 5.4- 4235.0wx-wx4wx-1141012.8 981.4 0.7- 0.012------
2019-05-06 17:00:00 10.5 -2.2 4.7--- 4150.0wxwxwxwx4wx--41012.3 981.0 0.4---------
2019-05-06 16:00:00 10.7 -3.1 4.5--- 3850.0wxwxwxwx5wx--51012.1 980.8 0.4---------
2019-05-06 15:00:00 10.9 -2.9 4.7--- 3845.0wxwxwxwx5wx-1151012.0 980.7 -0.1---------
2019-05-06 14:00:00 11.1 -4.2 4.5--- 3445.0wx-wx6wx-1161011.8 980.6 -0.2---------
2019-05-06 13:00:00 10.7 -4.9 4.1--- 3340.0wx-wx5wx-1051011.7 980.4 -0.7---------
2019-05-06 12:00:00 10.6 -5.0 4.0--- 3345.0wx-wx4wx91141012.1 980.8 -0.7- 0.06------
2019-05-06 11:00:00 9.7 -8.9 2.7--- 2640.0wx-wxwx6wx--61012.2 980.8 -0.5---------
2019-05-06 10:00:00 9.5 -6.8 3.0--- 3140.0wx-wx5wx-1051012.5 981.1 -0.4---------
2019-05-06 09:00:00 8.6 -6.8 2.5--- 3345.0wx-wx4wx-1141013.1 981.5 -0.1---------
2019-05-06 08:00:00 8.0 -5.8 2.3--- 3750.0wx-wx5wx-1151012.9 981.3 0.0---------
2019-05-06 07:00:00 6.5 -4.3 1.8--- 4645.0wx-wx6wx-961013.3 981.5 0.1---------
2019-05-06 06:00:00 5.4 -2.7 1.6 8.2 5.1 5 5645.0wx-wx3wx--31013.5 981.6 0.4- 0.012------
2019-05-06 05:00:00 5.1 -3.0 1.3--- 5650.0wx-wx4wx--41013.3 981.3 0.0---------
2019-05-06 04:00:00 5.5 -2.6 1.7--- 5650.0wxwxwxwx4wx--41013.3 981.4 0.1---------
2019-05-06 03:00:00 5.5 -2.4 1.7--- 5750.0wxwxwx3wx--31013.1 981.2 -0.2---------
2019-05-06 02:00:00 5.8 -1.8 2.1--- 5850.0wxwxwx4wx--41013.2 981.3 -0.3---------
2019-05-06 01:00:00 6.1 -1.3 2.4--- 5950.0wxwxwx4wx--41013.1 981.3 -0.4---------
2019-05-06 00:00:00 6.5 -0.9 2.8--- 5950.0wxwxwx5wx--51013.2 981.4 -0.2- 0.06------
2019-05-05 23:00:00 6.5 0.6 3.4--- 6650.0wxwxwx2wx--21013.4 981.6 0.1---------
2019-05-05 22:00:00 6.8 0.2 3.4--- 6350.0wxwxwxwx3wx--31013.5 981.7 0.2---------
2019-05-05 21:00:00 6.8 0.2 3.4--- 6350.0wxwxwx2wx--21013.4 981.6 0.6---------
2019-05-05 20:00:00 7.1 -0.1 3.4--- 6050.0wxwxwxwx3wx--31013.2 981.5 0.9---------
2019-05-05 19:00:00 7.6 -0.1 3.7--- 5850.0wx-wx4wx--41013.2 981.5 0.8---------
2019-05-05 18:00:00 8.1 0.1 4.1 8.8 3.9- 5750.0wxwxwxwx3wx-1031012.6 981.0 0.4--12wx-w1--
2019-05-05 17:00:00 8.6 -0.5 4.1--- 5345.0wxwxwxwx4wx--41012.1 980.6 0.2---wx---
2019-05-05 16:00:00 8.7 0.6 4.6--- 5750.0wxwxwx3wx--31012.2 980.7 0.3---wx---
2019-05-05 15:00:00 8.4 0.6 4.4--- 5850.0wxwxwx5wx-1051012.1 980.6 0.1---wx-w1--
2019-05-05 14:00:00 8.6 1.5 4.9--- 6145.0wxwxwx5wx-1051011.9 980.4 -0.1---wx---
2019-05-05 13:00:00 8.5 1.6 4.8--- 6240.0wxwxwx6wx-1061011.9 980.4 0.6---wx---
2019-05-05 12:00:00 7.4 1.7 4.3--- 6750.0wxwxwx4wx-1041012.2 980.5 0.9- 0.06------
2019-05-05 11:00:00 6.5 1.8 3.9--- 7250.0wxwxwx5wx10--1012.3 980.5 1.3---------
2019-05-05 10:00:00 6.1 1.6 3.6--- 7350.0wxwxwx6wx-1061011.6 979.8 1.0---------
2019-05-05 09:00:00 5.1 1.9 3.2--- 8045.0wxwxwx6wx--61011.5 979.6 1.5---------
2019-05-05 08:00:00 4.5 2.2 3.1--- 8535.0wxwxwx5wx--51011.2 979.2 1.7---------
2019-05-05 07:00:00 3.9 2.4 2.9--- 9015.0wxwxwx5wx--51010.8 978.8 1.9---------
2019-05-05 06:00:00 4.3 2.8 3.3 11.5 4.2 5 9012.0wxwxwx5wx--51010.0 978.1 2.1--12----- 9.4
2019-05-05 05:00:00 4.4 2.9 3.4--- 9015.0wxwxwx5wx--51009.4 977.5 2.2---------
2019-05-05 04:00:00 4.5 3.2 3.6--- 919.0wxwxwx5wx--51008.8 976.9 2.4---wx---
2019-05-05 03:00:00 5.0 4.0 4.3--- 939.0wxwxwx4wx--41007.8 976.0 1.7---wx---
2019-05-05 02:00:00 6.0 5.0 5.3--- 938.0wxwxwx4wx---1007.0 975.3 0.9---wx---
2019-05-05 01:00:00 7.1 5.9 6.3--- 9210.0wxwxwx4wx---1006.0 974.5 0.5---------
2019-05-05 00:00:00 8.3 7.1 7.5--- 9218.0wxwxwx1wx--11005.7 974.3 0.4--6wx-w1--
4.3 ms

 

Print Friendly, PDF & Email